createdAt,value
2019-03-08T00:00:32.427Z,45.90
2019-03-08T00:07:17.546Z,45.20
2019-03-08T00:14:02.946Z,45.00
2019-03-08T00:20:50.091Z,44.90
2019-03-08T00:27:35.707Z,45.40
2019-03-08T00:34:20.661Z,45.50
2019-03-08T00:41:05.659Z,45.60
2019-03-08T00:47:50.583Z,46.10
2019-03-08T00:54:35.511Z,45.90
2019-03-08T01:01:20.510Z,45.90
2019-03-08T01:08:05.591Z,46.20
2019-03-08T01:14:50.783Z,46.40
2019-03-08T01:21:35.978Z,46.90
2019-03-08T01:28:21.164Z,47.00
2019-03-08T01:35:06.931Z,47.20
2019-03-08T01:41:51.850Z,46.90
2019-03-08T01:48:37.266Z,46.80
2019-03-08T01:55:22.194Z,47.20
2019-03-08T02:02:07.183Z,47.20
2019-03-08T02:08:52.146Z,47.70
2019-03-08T02:15:37.139Z,48.50
2019-03-08T02:22:23.607Z,49.20
2019-03-08T02:29:08.657Z,49.40
2019-03-08T02:35:53.693Z,50.80
2019-03-08T02:42:38.622Z,52.20
2019-03-08T02:49:25.654Z,53.50
2019-03-08T02:56:10.571Z,54.50
2019-03-08T03:02:55.502Z,55.30
2019-03-08T03:09:40.561Z,55.10
2019-03-08T03:16:25.474Z,55.30
2019-03-08T03:23:10.394Z,54.90
2019-03-08T03:29:55.843Z,55.30
2019-03-08T03:36:40.977Z,60.00
2019-03-08T03:43:25.918Z,61.30
2019-03-08T03:50:12.140Z,61.60
2019-03-08T03:56:57.622Z,62.10
2019-03-08T04:03:42.622Z,62.80
2019-03-08T04:10:27.479Z,62.50
2019-03-08T04:17:12.406Z,62.30
2019-03-08T04:23:57.327Z,62.10
2019-03-08T04:30:43.810Z,61.70
2019-03-08T04:37:28.728Z,61.60
2019-03-08T04:44:13.653Z,62.30
2019-03-08T04:50:58.571Z,61.80
2019-03-08T04:57:43.500Z,61.30
2019-03-08T05:04:28.439Z,60.70
2019-03-08T05:11:13.559Z,60.70
2019-03-08T05:17:58.590Z,61.10
2019-03-08T05:24:43.603Z,60.90
2019-03-08T05:31:29.570Z,60.60
2019-03-08T05:38:14.495Z,60.60
2019-03-08T05:44:59.518Z,60.80
2019-03-08T05:51:44.362Z,61.20
2019-03-08T05:58:29.281Z,61.70
2019-03-08T06:05:14.158Z,62.00
2019-03-08T06:11:59.078Z,61.30
2019-03-08T06:18:44.202Z,61.30
2019-03-08T06:25:29.055Z,60.60
2019-03-08T06:32:13.978Z,60.00
2019-03-08T06:38:58.894Z,59.80
2019-03-08T06:45:44.429Z,57.00
2019-03-08T06:52:29.352Z,55.40
2019-03-08T06:59:15.872Z,53.30
2019-03-08T07:06:00.799Z,50.10
2019-03-08T07:12:45.728Z,52.70
2019-03-08T07:19:40.331Z,52.70
2019-03-08T07:26:35.871Z,50.40
2019-03-08T07:33:22.919Z,46.80
2019-03-08T07:40:10.338Z,47.20
2019-03-08T07:47:12.120Z,48.40
2019-03-08T07:54:04.536Z,46.80
2019-03-08T08:01:06.877Z,35.60
2019-03-08T08:08:00.070Z,33.00
2019-03-08T08:14:46.677Z,36.10
2019-03-08T08:21:33.246Z,36.40
2019-03-08T08:28:20.019Z,36.30
2019-03-08T08:35:15.565Z,35.60
2019-03-08T08:42:08.004Z,33.80
2019-03-08T08:49:06.631Z,36.00
2019-03-08T08:56:05.470Z,38.80
2019-03-08T09:02:54.752Z,40.30
2019-03-08T09:09:51.078Z,37.30
2019-03-08T09:16:40.482Z,34.60
2019-03-08T09:23:28.320Z,30.00
2019-03-08T09:30:32.610Z,27.10
2019-03-08T09:37:28.494Z,24.20
2019-03-08T09:44:17.773Z,23.40
2019-03-08T09:51:13.687Z,24.80
2019-03-08T09:58:00.363Z,26.20
2019-03-08T10:04:52.631Z,27.00
2019-03-08T10:11:45.190Z,26.90
2019-03-08T10:18:34.502Z,27.90
2019-03-08T10:25:21.078Z,27.70
2019-03-08T10:32:23.847Z,25.80
2019-03-08T10:39:16.705Z,25.00
2019-03-08T10:46:15.354Z,22.80
2019-03-08T10:52:54.398Z,21.20
2019-03-08T10:59:49.795Z,22.10
2019-03-08T11:06:46.000Z,24.10
2019-03-08T11:13:49.053Z,24.20
2019-03-08T11:20:46.328Z,23.80
2019-03-08T11:27:48.591Z,24.40
2019-03-08T11:34:35.313Z,24.50
2019-03-08T11:41:24.529Z,24.50
2019-03-08T11:48:17.209Z,24.80
2019-03-08T11:55:06.331Z,25.70
2019-03-08T12:02:09.143Z,25.10
2019-03-08T12:09:01.605Z,25.50
2019-03-08T12:15:58.642Z,25.60
2019-03-08T12:22:54.631Z,26.40
2019-03-08T12:29:41.549Z,26.30
2019-03-08T12:36:31.341Z,25.70
2019-03-08T12:43:34.468Z,24.80
2019-03-08T12:50:24.148Z,25.20
2019-03-08T12:57:16.300Z,25.90
2019-03-08T13:04:19.307Z,25.90
2019-03-08T13:11:05.771Z,25.70
2019-03-08T13:17:51.353Z,26.20
2019-03-08T13:24:36.762Z,26.40
2019-03-08T13:31:23.673Z,26.70
2019-03-08T13:38:09.200Z,26.00
2019-03-08T13:44:56.289Z,25.20
2019-03-08T13:51:41.294Z,24.50
2019-03-08T13:58:26.637Z,23.80
2019-03-08T14:05:12.076Z,31.10
2019-03-08T14:11:57.983Z,39.10
2019-03-08T14:18:43.246Z,41.90
2019-03-08T14:25:28.379Z,42.70
2019-03-08T14:32:15.119Z,43.30
2019-03-08T14:39:00.026Z,44.30
2019-03-08T14:45:46.667Z,43.90
2019-03-08T14:52:31.607Z,40.80
2019-03-08T14:59:16.869Z,40.80
2019-03-08T15:06:01.867Z,39.80
2019-03-08T15:12:49.297Z,37.60
2019-03-08T15:19:36.069Z,34.50
2019-03-08T15:26:21.143Z,27.60
2019-03-08T15:33:06.143Z,27.50
2019-03-08T15:39:51.066Z,27.80
2019-03-08T15:46:36.015Z,27.80
2019-03-08T15:53:22.242Z,27.80
2019-03-08T16:00:21.788Z,27.70
2019-03-08T16:07:06.761Z,29.10
2019-03-08T16:13:51.727Z,30.00
2019-03-08T16:20:37.648Z,30.00
2019-03-08T16:27:23.401Z,30.30
2019-03-08T16:34:09.752Z,31.20
2019-03-08T16:41:12.719Z,32.80
2019-03-08T16:48:08.406Z,33.60
2019-03-08T16:55:03.584Z,34.20
2019-03-08T17:01:50.364Z,35.80
2019-03-08T17:08:38.119Z,36.00
2019-03-08T17:15:30.807Z,35.80
2019-03-08T17:22:32.866Z,36.10
2019-03-08T17:29:22.237Z,37.10
2019-03-08T17:36:20.867Z,37.70
2019-03-08T17:43:19.447Z,39.00
2019-03-08T17:50:15.969Z,40.70
2019-03-08T17:57:05.424Z,41.50
2019-03-08T18:04:08.335Z,42.50
2019-03-08T18:10:54.923Z,45.00
2019-03-08T18:17:57.279Z,44.50
2019-03-08T18:24:59.619Z,44.50
2019-03-08T18:31:49.089Z,46.90
2019-03-08T18:38:41.268Z,49.30
2019-03-08T18:45:47.164Z,50.10
2019-03-08T18:52:39.870Z,50.90
2019-03-08T18:59:35.828Z,51.60
2019-03-08T19:06:23.358Z,51.60
2019-03-08T19:13:22.361Z,51.60
2019-03-08T19:20:27.375Z,53.00
2019-03-08T19:27:30.387Z,53.50
2019-03-08T19:34:26.157Z,54.50
2019-03-08T19:41:13.251Z,55.60
2019-03-08T19:48:04.359Z,54.60
2019-03-08T19:54:50.888Z,54.00
2019-03-08T20:01:37.451Z,53.50
2019-03-08T20:08:42.343Z,51.80
2019-03-08T20:15:44.155Z,52.00
2019-03-08T20:22:33.866Z,52.30
2019-03-08T20:29:20.565Z,53.40
2019-03-08T20:36:23.671Z,54.30
2019-03-08T20:43:10.710Z,54.00
2019-03-08T20:49:55.962Z,56.00
2019-03-08T20:56:42.705Z,56.10
2019-03-08T21:03:28.365Z,53.60
2019-03-08T21:10:14.834Z,53.40
2019-03-08T21:16:59.969Z,53.50
2019-03-08T21:23:44.983Z,53.30
2019-03-08T21:30:29.911Z,53.10
2019-03-08T21:37:15.164Z,51.40
2019-03-08T21:44:00.236Z,51.50
2019-03-08T21:50:45.163Z,50.60
2019-03-08T21:57:31.486Z,52.30
2019-03-08T22:04:18.584Z,51.10
2019-03-08T22:11:05.381Z,50.20
2019-03-08T22:17:50.460Z,51.00
2019-03-08T22:24:36.738Z,48.90
2019-03-08T22:31:21.960Z,47.70
2019-03-08T22:38:06.967Z,47.70
2019-03-08T22:44:52.337Z,48.10
2019-03-08T22:51:38.481Z,47.80
2019-03-08T22:58:23.621Z,47.60
2019-03-08T23:05:08.722Z,48.50
2019-03-08T23:11:54.107Z,48.80
2019-03-08T23:18:39.119Z,47.40
2019-03-08T23:25:24.354Z,47.20
2019-03-08T23:32:10.934Z,46.50
2019-03-08T23:38:57.595Z,46.40
2019-03-08T23:45:42.866Z,46.80
2019-03-08T23:52:28.722Z,46.90
2019-03-08T23:59:14.121Z,47.00
